Time;durP1;ratioP1;P1;durP2;ratioP2;P2;SDS_P1;SDS_P2;PMS_P1;PMS_P2;Temp;Humidity;BMP_temperature;BMP_pressure;BME280_temperature;BME280_humidity;BME280_pressure;Samples;Min_cycle;Max_cycle;Signal;HPM_P1;HPM_P2
2022/11/26 00:00:17;;;;;;;19.77;9.45;;;;;;;5.96;84.71;102513.88;5069842;28;20479;-89
2022/11/26 00:02:43;;;;;;;20.30;9.23;;;;;;;5.89;84.78;102502.44;5087043;28;20487;-90
2022/11/26 00:05:15;;;;;;;20.05;10.02;;;;;;;5.96;84.42;102503.38;5072385;28;20034;-90
2022/11/26 00:07:43;;;;;;;17.55;10.40;;;;;;;5.89;84.16;102499.81;5091027;28;20028;-90
2022/11/26 00:10:21;;;;;;;17.85;10.25;;;;;;;5.99;84.50;102515.66;5080697;28;20079;-90
2022/11/26 00:12:47;;;;;;;20.25;9.57;;;;;;;5.93;84.12;102508.63;5090920;28;20399;-90
2022/11/26 00:15:19;;;;;;;22.65;9.32;;;;;;;5.93;84.65;102516.50;5068321;28;20020;-89
2022/11/26 00:17:45;;;;;;;19.52;8.32;;;;;;;5.91;83.83;102512.06;5070580;28;20028;-90
2022/11/26 00:20:10;;;;;;;18.52;8.80;;;;;;;5.86;84.12;102514.66;5091003;28;20016;-89
2022/11/26 00:22:43;;;;;;;20.95;8.85;;;;;;;5.87;83.68;102519.03;5071560;28;20023;-90
2022/11/26 00:25:23;;;;;;;20.70;9.38;;;;;;;5.86;83.86;102531.28;5070829;28;20499;-89
2022/11/26 00:27:51;;;;;;;21.17;8.95;;;;;;;5.85;83.97;102529.53;5063473;28;20039;-90
2022/11/26 00:30:25;;;;;;;18.58;7.95;;;;;;;5.80;83.80;102525.13;5070320;28;20024;-89
2022/11/26 00:32:52;;;;;;;20.30;9.32;;;;;;;5.75;83.91;102530.34;5070552;28;20498;-90
2022/11/26 00:35:18;;;;;;;18.17;8.88;;;;;;;5.73;83.76;102523.31;5088443;28;20044;-90
2022/11/26 00:37:47;;;;;;;22.33;8.82;;;;;;;5.75;83.83;102527.72;5090869;28;20115;-89
2022/11/26 00:40:25;;;;;;;15.80;8.52;;;;;;;5.73;83.37;102526.81;5088265;28;20032;-90
2022/11/26 00:42:51;;;;;;;15.90;8.77;;;;;;;5.66;83.44;102527.66;5083096;28;20046;-90
2022/11/26 00:45:29;;;;;;;14.98;8.18;;;;;;;5.61;83.11;102522.38;5083217;28;20032;-89
2022/11/26 00:47:56;;;;;;;13.80;8.25;;;;;;;5.54;83.23;102520.56;5087825;28;20279;-89
2022/11/26 00:50:25;;;;;;;19.20;9.05;;;;;;;5.48;83.11;102517.91;5068420;28;20016;-90
2022/11/26 00:52:53;;;;;;;17.38;8.52;;;;;;;5.46;82.76;102530.13;5067796;28;20471;-90
2022/11/26 00:55:40;;;;;;;15.10;8.32;;;;;;;5.49;83.13;102538.00;5061973;28;20110;-89
2022/11/26 00:58:06;;;;;;;15.35;7.95;;;;;;;5.45;83.62;102530.97;5071736;28;20387;-90
2022/11/26 01:00:33;;;;;;;26.48;9.50;;;;;;;5.41;84.20;102531.84;5088223;28;20039;-90
2022/11/26 01:02:59;;;;;;;20.45;9.38;;;;;;;5.48;84.72;102541.50;5066569;28;20070;-89
2022/11/26 01:05:32;;;;;;;22.65;10.07;;;;;;;5.47;84.56;102546.75;5081152;28;20024;-90
2022/11/26 01:08:01;;;;;;;23.35;9.82;;;;;;;5.42;84.46;102528.34;5082433;28;20487;-90
2022/11/26 01:10:28;;;;;;;20.52;9.95;;;;;;;5.41;84.74;102523.06;5070104;28;20077;-89
2022/11/26 01:12:54;;;;;;;23.63;9.15;;;;;;;5.38;85.18;102532.69;5068819;28;20035;-90
2022/11/26 01:15:22;;;;;;;27.05;11.05;;;;;;;5.38;85.51;102534.44;5055038;28;20024;-90
2022/11/26 01:17:48;;;;;;;23.55;10.30;;;;;;;5.46;85.07;102550.25;5091046;28;20491;-89
2022/11/26 01:20:23;;;;;;;20.95;10.02;;;;;;;5.45;85.81;102537.97;5087545;28;20016;-89
2022/11/26 01:22:50;;;;;;;21.77;9.73;;;;;;;5.44;85.26;102534.47;5071138;28;20483;-89
2022/11/26 01:25:15;;;;;;;14.57;9.25;;;;;;;5.46;85.05;102548.50;5082226;28;20028;-89
2022/11/26 01:27:41;;;;;;;22.45;9.90;;;;;;;5.48;84.40;102532.75;5090785;28;20081;-90
2022/11/26 01:30:18;;;;;;;22.98;9.77;;;;;;;5.48;84.36;102522.28;5067500;28;20434;-90
2022/11/26 01:32:44;;;;;;;24.85;10.43;;;;;;;5.51;84.45;102532.81;5067495;28;20020;-90
2022/11/26 01:35:10;;;;;;;19.15;9.82;;;;;;;5.37;83.76;102520.44;5085326;28;20472;-89
2022/11/26 01:37:35;;;;;;;14.73;9.10;;;;;;;5.33;83.48;102528.28;5074673;28;20032;-90
2022/11/26 01:40:00;;;;;;;21.27;9.43;;;;;;;5.24;83.08;102529.06;5090052;28;20490;-90
2022/11/26 01:42:47;;;;;;;21.48;8.90;;;;;;;5.25;83.14;102540.44;5085241;28;20012;-89
2022/11/26 01:45:21;;;;;;;17.63;9.07;;;;;;;5.17;83.29;102539.47;5085160;28;20035;-90
2022/11/26 01:47:49;;;;;;;16.75;8.02;;;;;;;5.04;83.00;102530.63;5087962;28;20387;-90
2022/11/26 01:50:26;;;;;;;19.75;8.52;;;;;;;5.08;82.87;102550.75;5088912;28;20059;-90
2022/11/26 01:52:54;;;;;;;15.40;8.25;;;;;;;5.01;83.54;102536.72;5085611;28;20098;-90
2022/11/26 01:55:19;;;;;;;16.33;8.85;;;;;;;4.92;83.83;102549.72;5062489;28;20028;-90
2022/11/26 01:57:45;;;;;;;18.55;8.80;;;;;;;4.86;85.15;102547.03;5087375;28;20039;-89
2022/11/26 02:00:11;;;;;;;20.90;9.10;;;;;;;4.91;85.12;102553.22;5088010;28;20024;-90
2022/11/26 02:02:37;;;;;;;18.55;9.48;;;;;;;4.94;85.79;102545.34;5090564;28;20107;-90
2022/11/26 02:05:10;;;;;;;26.88;10.45;;;;;;;4.96;86.34;102543.66;5081247;28;20031;-89
2022/11/26 02:07:36;;;;;;;19.02;9.73;;;;;;;5.02;85.98;102559.44;5087196;28;20058;-90
2022/11/26 02:10:02;;;;;;;19.95;10.45;;;;;;;4.99;85.47;102561.13;5062858;28;20364;-89
2022/11/26 02:12:28;;;;;;;29.65;11.07;;;;;;;4.92;85.38;102551.47;5072549;28;20028;-90
2022/11/26 02:14:53;;;;;;;18.55;9.50;;;;;;;4.86;84.82;102547.03;5061504;28;20016;-89
2022/11/26 02:17:29;;;;;;;16.25;9.07;;;;;;;4.80;84.21;102553.09;5090138;28;20032;-89
2022/11/26 02:20:32;;;;;;;19.55;9.68;;;;;;;4.84;84.68;102574.94;5078289;28;20028;-89
2022/11/26 02:23:06;;;;;;;;;;;;;;;4.92;83.71;102580.28;5072291;28;20046;-90
2022/11/26 02:25:57;;;;;;;20.50;9.05;;;;;;;4.80;84.78;102576.69;5083100;28;20419;-90
2022/11/26 02:28:38;;;;;;;18.67;9.68;;;;;;;5.03;84.30;102582.16;5040968;28;20098;-90
2022/11/26 02:31:19;;;;;;;17.77;9.18;;;;;;;4.85;85.48;102581.97;5084236;28;20016;-89
2022/11/26 02:33:56;;;;;;;21.83;10.20;;;;;;;4.85;85.96;102579.34;5086058;28;20035;-89
2022/11/26 02:36:39;;;;;;;28.27;10.20;;;;;;;4.84;85.70;102575.81;5086218;28;20414;-89
2022/11/26 02:39:17;;;;;;;;;;;;;;;5.00;84.22;102590.00;5090418;28;20028;-89
2022/11/26 02:41:45;;;;;;;23.38;9.90;;;;;;;4.83;85.26;102575.81;5093280;28;19911;-89
2022/11/26 02:44:13;;;;;;;17.88;9.40;;;;;;;4.97;85.10;102568.13;5071633;28;20169;-89
2022/11/26 02:46:40;;;;;;;24.35;10.68;;;;;;;4.97;85.35;102569.00;5085304;28;20078;-89
2022/11/26 02:49:08;;;;;;;17.77;9.27;;;;;;;5.00;84.79;102574.28;5091349;28;20024;-89
2022/11/26 02:51:33;;;;;;;23.92;9.85;;;;;;;4.99;84.94;102579.47;5075720;28;20074;-89
2022/11/26 02:54:00;;;;;;;23.15;9.90;;;;;;;4.99;85.15;102580.38;5091039;28;20063;-89
2022/11/26 02:56:27;;;;;;;20.70;10.30;;;;;;;4.90;84.94;102576.78;5065831;28;20081;-89
2022/11/26 02:58:54;;;;;;;20.48;9.82;;;;;;;4.92;85.00;102582.91;5091006;28;20089;-89
2022/11/26 03:01:28;;;;;;;24.30;10.15;;;;;;;4.92;85.36;102577.69;5072586;28;20020;-89
2022/11/26 03:03:57;;;;;;;18.50;10.63;;;;;;;5.05;85.71;102584.81;5074772;28;20062;-89
2022/11/26 03:06:26;;;;;;;19.33;9.65;;;;;;;4.97;84.68;102584.72;5093042;28;20372;-89
2022/11/26 03:08:54;;;;;;;18.75;10.45;;;;;;;5.01;84.95;102590.88;5068733;28;20028;-89
2022/11/26 03:11:20;;;;;;;26.05;10.23;;;;;;;4.84;85.95;102590.69;5092854;28;20027;-89
2022/11/26 03:13:46;;;;;;;24.88;11.10;;;;;;;4.87;86.68;102601.22;5092319;28;20047;-89
2022/11/26 03:16:12;;;;;;;27.75;10.48;;;;;;;5.21;85.72;102605.06;5090113;28;20015;-89
2022/11/26 03:18:37;;;;;;;23.27;10.38;;;;;;;5.35;84.82;102615.69;5093221;28;20114;-89
2022/11/26 03:21:02;;;;;;;23.92;10.38;;;;;;;4.98;85.49;102602.19;5092395;28;20035;-89
2022/11/26 03:23:28;;;;;;;26.00;10.93;;;;;;;4.95;86.34;102612.66;5092543;28;20020;-89
2022/11/26 03:25:53;;;;;;;26.27;10.45;;;;;;;4.96;86.61;102608.28;5088810;28;20070;-89
2022/11/26 03:28:18;;;;;;;28.02;10.63;;;;;;;4.94;86.86;102612.63;5093146;28;20035;-89
2022/11/26 03:30:44;;;;;;;26.13;11.02;;;;;;;4.96;87.05;102605.69;5088549;28;20034;-89
2022/11/26 03:33:09;;;;;;;22.52;11.15;;;;;;;4.98;87.33;102604.81;5091261;28;20016;-89
2022/11/26 03:35:34;;;;;;;28.17;11.40;;;;;;;5.02;87.58;102608.34;5084241;28;20046;-89
2022/11/26 03:37:59;;;;;;;23.05;10.55;;;;;;;5.03;87.56;102616.22;5092505;28;20483;-89
2022/11/26 03:40:25;;;;;;;23.27;11.02;;;;;;;5.03;87.60;102613.59;5071301;28;20055;-89
2022/11/26 03:42:50;;;;;;;23.90;11.55;;;;;;;4.99;87.04;102616.19;5091794;28;20051;-89
2022/11/26 03:45:15;;;;;;;19.52;10.00;;;;;;;4.97;86.62;102618.78;5083895;28;20027;-89
2022/11/26 03:47:41;;;;;;;23.83;10.52;;;;;;;4.97;86.84;102618.78;5080013;28;20036;-89
2022/11/26 03:50:07;;;;;;;23.02;10.10;;;;;;;4.97;86.19;102628.41;5064065;28;20027;-89
2022/11/26 03:52:32;;;;;;;22.75;10.00;;;;;;;4.78;86.13;102609.84;5091735;28;20023;-89
2022/11/26 03:54:58;;;;;;;22.17;9.05;;;;;;;4.73;85.91;102608.91;5070981;28;20518;-89
2022/11/26 03:57:23;;;;;;;17.77;9.35;;;;;;;4.91;85.64;102621.34;5088814;28;20028;-89
2022/11/26 03:59:48;;;;;;;21.90;9.65;;;;;;;5.08;84.56;102622.44;5068713;28;20024;-89
2022/11/26 04:02:14;;;;;;;20.63;9.27;;;;;;;4.99;84.63;102618.78;5089402;28;20034;-90
2022/11/26 04:04:39;;;;;;;18.50;9.65;;;;;;;4.90;85.69;102627.47;5089662;28;20025;-89
2022/11/26 04:07:04;;;;;;;29.63;11.35;;;;;;;5.12;84.95;102625.94;5061280;28;20030;-89
2022/11/26 04:09:30;;;;;;;27.83;9.98;;;;;;;5.13;84.17;102619.84;5060957;28;20020;-89
2022/11/26 04:11:55;;;;;;;23.25;8.95;;;;;;;4.74;85.93;102625.50;5073139;28;20055;-89
2022/11/26 04:14:20;;;;;;;18.88;8.82;;;;;;;5.12;83.81;102632.06;5076811;28;20083;-90
2022/11/26 04:16:45;;;;;;;16.17;8.85;;;;;;;4.76;84.83;102643.00;5071211;28;20315;-89
2022/11/26 04:19:11;;;;;;;22.17;9.40;;;;;;;5.03;84.91;102647.69;5062323;28;20032;-89
2022/11/26 04:21:36;;;;;;;21.35;8.57;;;;;;;4.71;86.27;102654.25;5089532;28;20028;-90
2022/11/26 04:24:02;;;;;;;18.35;8.80;;;;;;;4.64;86.51;102653.31;5072982;28;20375;-89
2022/11/26 04:26:27;;;;;;;18.70;8.85;;;;;;;4.70;86.71;102650.78;5085501;28;20033;-89
2022/11/26 04:28:52;;;;;;;21.50;9.00;;;;;;;4.70;86.84;102644.66;5068683;28;20463;-89
2022/11/26 04:31:18;;;;;;;20.55;8.80;;;;;;;4.75;87.20;102656.06;5069292;28;20024;-89
2022/11/26 04:33:43;;;;;;;22.27;8.93;;;;;;;4.67;87.42;102652.50;5066171;28;20032;-89
2022/11/26 04:36:09;;;;;;;23.65;10.20;;;;;;;4.86;87.05;102651.88;5087795;28;20051;-89
2022/11/26 04:38:36;;;;;;;22.52;9.13;;;;;;;4.71;87.40;102651.66;5091535;28;20073;-89
2022/11/26 04:41:01;;;;;;;19.42;8.90;;;;;;;4.70;87.26;102647.28;5090558;28;20020;-89
2022/11/26 04:43:26;;;;;;;22.50;8.27;;;;;;;4.78;87.22;102653.50;5090119;28;20528;-89
2022/11/26 04:45:51;;;;;;;22.02;9.05;;;;;;;4.73;87.00;102655.19;5085598;28;20131;-89
2022/11/26 04:48:17;;;;;;;16.73;7.43;;;;;;;4.65;86.85;102656.81;5069779;28;20483;-89
2022/11/26 04:50:42;;;;;;;19.52;7.63;;;;;;;4.59;85.94;102655.00;5089401;28;20042;-90
2022/11/26 04:53:08;;;;;;;17.52;7.43;;;;;;;4.46;85.99;102653.06;5089176;28;20070;-89
2022/11/26 04:55:33;;;;;;;16.05;7.90;;;;;;;4.45;85.39;102657.41;5070911;28;20024;-89
2022/11/26 04:57:58;;;;;;;13.82;6.88;;;;;;;4.34;84.97;102646.81;5073211;28;20024;-89
2022/11/26 05:00:24;;;;;;;12.85;6.40;;;;;;;4.28;84.87;102661.53;5084795;28;20498;-89
2022/11/26 05:02:49;;;;;;;16.10;7.00;;;;;;;4.30;85.69;102665.06;5091161;28;20035;-90
2022/11/26 05:05:14;;;;;;;20.33;7.05;;;;;;;4.29;85.57;102663.28;5067637;28;20024;-89
2022/11/26 05:07:40;;;;;;;16.83;7.47;;;;;;;4.22;85.63;102657.06;5087516;28;20496;-90
2022/11/26 05:10:07;;;;;;;15.73;6.63;;;;;;;4.20;85.32;102660.56;5081092;28;20027;-89
2022/11/26 05:12:32;;;;;;;21.52;8.00;;;;;;;4.23;86.08;102666.69;5071565;28;20551;-90
2022/11/26 05:14:58;;;;;;;16.60;7.60;;;;;;;4.21;86.59;102659.69;5081668;28;20056;-89
2022/11/26 05:17:23;;;;;;;18.25;7.35;;;;;;;4.27;86.60;102665.00;5054907;28;20016;-89
2022/11/26 05:19:48;;;;;;;20.38;7.53;;;;;;;4.32;87.31;102668.56;5085026;28;20146;-89
2022/11/26 05:22:13;;;;;;;20.75;8.15;;;;;;;4.37;87.02;102656.41;5086883;28;20028;-90
2022/11/26 05:24:39;;;;;;;23.42;8.77;;;;;;;4.49;87.63;102669.72;5088642;28;20024;-89
2022/11/26 05:27:04;;;;;;;21.67;8.98;;;;;;;4.52;87.43;102668.84;5065732;28;20023;-89
2022/11/26 05:29:30;;;;;;;24.90;8.65;;;;;;;4.58;87.65;102679.44;5067599;28;20055;-89
2022/11/26 05:31:56;;;;;;;29.58;12.48;;;;;;;4.58;88.70;102674.19;5067164;28;20027;-89
2022/11/26 05:34:21;;;;;;;24.02;11.23;;;;;;;4.63;88.13;102669.91;5069190;28;20434;-89
2022/11/26 05:36:46;;;;;;;24.05;10.50;;;;;;;4.69;88.50;102680.44;5089319;28;20407;-89
2022/11/26 05:39:11;;;;;;;29.67;12.18;;;;;;;4.75;88.58;102671.78;5067621;28;20055;-89
2022/11/26 05:41:37;;;;;;;28.52;10.63;;;;;;;4.76;88.60;102673.56;5078669;28;20483;-90
2022/11/26 05:44:02;;;;;;;32.53;10.73;;;;;;;4.79;88.26;102684.94;5089651;28;20090;-89
2022/11/26 05:46:28;;;;;;;29.98;11.27;;;;;;;4.75;87.94;102685.75;5080247;28;20036;-89
2022/11/26 05:48:53;;;;;;;21.48;11.40;;;;;;;4.69;87.98;102680.44;5083768;28;20024;-89
2022/11/26 05:51:19;;;;;;;17.88;10.02;;;;;;;4.67;87.87;102676.06;5067558;28;20031;-89
2022/11/26 05:53:44;;;;;;;24.25;11.32;;;;;;;4.61;88.36;102671.59;5089497;28;20095;-89
2022/11/26 05:56:09;;;;;;;24.38;10.70;;;;;;;4.73;87.90;102697.09;5084047;28;20102;-89
2022/11/26 05:58:35;;;;;;;23.60;10.27;;;;;;;4.64;88.14;102683.88;5087677;28;20091;-89
2022/11/26 06:01:05;;;;;;;27.08;10.02;;;;;;;4.70;88.32;102691.81;5084608;28;20032;-90
2022/11/26 06:03:31;;;;;;;28.83;10.43;;;;;;;4.57;88.50;102680.31;5088442;28;20422;-89
2022/11/26 06:05:56;;;;;;;27.48;9.57;;;;;;;4.69;88.45;102703.16;5070187;28;20020;-89
2022/11/26 06:08:21;;;;;;;28.30;10.32;;;;;;;4.90;88.92;102711.31;5071646;28;20080;-90
2022/11/26 06:10:46;;;;;;;22.67;9.73;;;;;;;4.74;87.99;102704.97;5074886;28;20042;-89
2022/11/26 06:13:12;;;;;;;30.00;9.77;;;;;;;4.65;88.17;102711.81;5096309;28;20928;-89
2022/11/26 06:15:37;;;;;;;21.50;9.70;;;;;;;4.59;88.30;102703.03;5084184;28;20008;-89
2022/11/26 06:18:03;;;;;;;22.55;9.75;;;;;;;4.65;87.63;102720.56;5096481;28;20031;-89
2022/11/26 06:20:28;;;;;;;27.67;10.02;;;;;;;4.59;88.37;102716.13;5095905;28;20028;-89
2022/11/26 06:22:53;;;;;;;19.33;9.25;;;;;;;4.61;88.51;102710.91;5073536;28;20024;-89
2022/11/26 06:25:19;;;;;;;30.33;9.40;;;;;;;4.59;87.96;102708.25;5089693;28;20395;-91
2022/11/26 06:27:44;;;;;;;20.52;9.20;;;;;;;4.57;87.66;102712.63;5096180;28;20028;-89
2022/11/26 06:30:11;;;;;;;24.90;9.13;;;;;;;4.73;87.47;102720.69;5094901;28;20063;-90
2022/11/26 06:32:36;;;;;;;18.90;9.05;;;;;;;4.73;87.22;102720.69;5091346;28;20043;-90
2022/11/26 06:35:02;;;;;;;18.13;8.63;;;;;;;4.56;87.36;102717.81;5077268;28;20036;-90
2022/11/26 06:37:27;;;;;;;26.02;9.23;;;;;;;4.58;87.40;102726.59;5094312;28;20069;-89
2022/11/26 06:39:53;;;;;;;26.95;10.10;;;;;;;4.52;87.42;102719.53;5074815;28;20033;-90
2022/11/26 06:42:18;;;;;;;22.15;10.27;;;;;;;4.64;86.63;102718.81;5075700;28;20024;-89
2022/11/26 06:44:45;;;;;;;20.95;9.73;;;;;;;4.69;86.08;102722.38;5088263;28;20111;-90
2022/11/26 06:47:11;;;;;;;21.50;10.23;;;;;;;4.68;86.01;102718.00;5096002;28;20028;-90
2022/11/26 06:49:36;;;;;;;23.00;11.00;;;;;;;4.69;86.13;102716.25;5091812;28;20024;-90
2022/11/26 06:52:02;;;;;;;26.88;11.30;;;;;;;4.71;85.73;102727.63;5071919;28;20053;-90
2022/11/26 06:54:27;;;;;;;26.75;10.90;;;;;;;4.75;85.80;102726.81;5095646;28;20035;-90
2022/11/26 06:56:52;;;;;;;24.02;10.93;;;;;;;4.77;85.67;102733.84;5068199;28;20789;-90
2022/11/26 06:59:18;;;;;;;24.75;12.18;;;;;;;4.62;85.69;102720.53;5095322;28;20030;-90
2022/11/26 07:01:44;;;;;;;29.13;12.88;;;;;;;4.56;86.17;102733.53;5077480;28;20055;-89
2022/11/26 07:04:11;;;;;;;29.90;12.35;;;;;;;4.59;86.22;102738.81;5073085;28;20210;-90
2022/11/26 07:06:36;;;;;;;23.88;12.30;;;;;;;4.58;85.91;102737.06;5077373;28;20034;-90
2022/11/26 07:09:05;;;;;;;21.88;11.55;;;;;;;4.55;86.12;102737.00;5095705;28;20094;-90
2022/11/26 07:11:30;;;;;;;22.20;11.55;;;;;;;4.58;85.82;102742.31;5075706;28;20034;-90
2022/11/26 07:13:55;;;;;;;28.50;13.13;;;;;;;4.58;85.63;102745.81;5081912;28;20028;-90
2022/11/26 07:16:21;;;;;;;22.80;12.07;;;;;;;4.55;85.51;102758.84;5087569;28;20111;-90
2022/11/26 07:18:49;;;;;;;24.00;10.90;;;;;;;4.61;85.80;102765.91;5095038;28;20046;-90
2022/11/26 07:21:15;;;;;;;31.40;12.73;;;;;;;4.59;85.66;102768.50;5093597;28;20538;-90
2022/11/26 07:23:40;;;;;;;20.15;10.23;;;;;;;4.56;85.96;102768.44;5084198;28;20039;-90
2022/11/26 07:26:07;;;;;;;22.05;10.18;;;;;;;4.59;86.02;102771.13;5070416;28;20475;-89
2022/11/26 07:28:33;;;;;;;21.80;11.10;;;;;;;4.63;85.77;102781.66;5068043;28;20521;-90
2022/11/26 07:31:00;;;;;;;23.17;12.50;;;;;;;4.59;85.99;102768.50;5086433;28;20103;-90
2022/11/26 07:33:25;;;;;;;21.48;11.00;;;;;;;4.60;86.01;102769.38;5092101;28;20446;-89
2022/11/26 07:35:50;;;;;;;29.52;13.63;;;;;;;4.65;86.43;102772.09;5069078;28;20055;-90
2022/11/26 07:38:15;;;;;;;31.20;13.82;;;;;;;4.71;86.25;102772.16;5091404;28;20384;-90
2022/11/26 07:40:41;;;;;;;22.75;11.45;;;;;;;4.57;86.56;102767.63;5071402;28;20497;-90
2022/11/26 07:43:06;;;;;;;22.02;12.35;;;;;;;4.58;86.07;102774.63;5073741;28;20093;-90
2022/11/26 07:45:35;;;;;;;29.13;12.52;;;;;;;4.68;86.25;102769.50;5063938;28;20021;-90
2022/11/26 07:48:00;;;;;;;23.15;12.65;;;;;;;4.70;86.41;102771.28;5089439;28;20027;-90
2022/11/26 07:50:25;;;;;;;26.35;12.73;;;;;;;4.74;86.29;102777.47;5068108;28;20093;-89
2022/11/26 07:52:51;;;;;;;30.25;13.30;;;;;;;4.66;87.12;102774.72;5092213;28;20034;-90
2022/11/26 07:55:17;;;;;;;24.35;12.40;;;;;;;4.66;86.97;102774.72;5091017;28;20356;-90
2022/11/26 07:57:42;;;;;;;24.75;12.40;;;;;;;4.99;86.19;102782.22;5091298;28;20039;-90
2022/11/26 08:00:08;;;;;;;27.77;11.93;;;;;;;5.08;85.67;102769.25;5068134;28;20032;-90
2022/11/26 08:02:33;;;;;;;27.88;11.95;;;;;;;5.46;84.60;102771.47;5068268;28;20400;-90
2022/11/26 08:04:58;;;;;;;31.90;12.85;;;;;;;5.05;85.89;102779.66;5060586;28;20135;-90
2022/11/26 08:07:24;;;;;;;32.97;12.68;;;;;;;4.95;86.82;102766.44;5082046;28;20038;-90
2022/11/26 08:09:49;;;;;;;27.25;12.07;;;;;;;5.02;87.14;102771.75;5082004;28;20391;-90
2022/11/26 08:12:14;;;;;;;26.65;11.45;;;;;;;5.11;87.23;102776.25;5078463;28;20472;-89
2022/11/26 08:14:39;;;;;;;28.40;13.18;;;;;;;5.24;87.21;102778.19;5079879;28;20017;-91
2022/11/26 08:17:05;;;;;;;27.33;12.13;;;;;;;5.35;87.28;102781.81;5070718;28;20035;-90
2022/11/26 08:19:30;;;;;;;30.50;12.18;;;;;;;5.54;86.87;102782.03;5091277;28;20111;-90
2022/11/26 08:21:55;;;;;;;33.92;11.70;;;;;;;5.65;87.15;102784.81;5066184;28;20036;-90
2022/11/26 08:24:22;;;;;;;31.00;12.32;;;;;;;5.79;86.44;102788.47;5086868;28;20041;-90
2022/11/26 08:26:47;;;;;;;28.98;12.75;;;;;;;5.93;86.37;102783.38;5071442;28;20019;-90
2022/11/26 08:29:13;;;;;;;28.38;11.95;;;;;;;5.96;86.58;102794.78;5091632;28;20092;-90
2022/11/26 08:31:42;;;;;;;26.00;11.18;;;;;;;6.01;86.84;102795.69;5086972;28;20028;-91
2022/11/26 08:34:11;;;;;;;23.08;10.32;;;;;;;6.07;86.78;102789.66;5089168;28;20502;-90
2022/11/26 08:36:37;;;;;;;25.13;10.85;;;;;;;6.07;86.93;102782.66;5071954;28;20024;-90
2022/11/26 08:39:02;;;;;;;31.23;11.57;;;;;;;6.17;86.77;102798.50;5091901;28;20136;-90
2022/11/26 08:41:27;;;;;;;24.13;10.98;;;;;;;6.22;86.79;102808.19;5081509;28;20031;-90
2022/11/26 08:43:53;;;;;;;26.35;10.07;;;;;;;6.22;86.61;102800.28;5089331;28;20024;-90
2022/11/26 08:46:18;;;;;;;15.55;8.68;;;;;;;6.24;86.46;102808.19;5070611;28;20028;-90
2022/11/26 08:48:44;;;;;;;27.88;11.23;;;;;;;6.25;86.63;102796.81;5060008;28;20027;-90
2022/11/26 08:51:11;;;;;;;25.67;9.93;;;;;;;6.36;87.15;102808.31;5070524;28;20069;-90
2022/11/26 08:53:37;;;;;;;21.70;8.85;;;;;;;6.40;86.92;102791.72;5082718;28;20032;-90
2022/11/26 08:56:08;;;;;;;26.20;9.38;;;;;;;6.41;87.15;102792.59;5079440;28;20106;-90
2022/11/26 08:58:36;;;;;;;24.67;9.98;;;;;;;6.46;87.01;102802.25;5086210;28;20475;-90
2022/11/26 09:01:08;;;;;;;26.55;9.02;;;;;;;6.71;86.38;102798.06;5090907;28;20058;-90
2022/11/26 09:03:33;;;;;;;23.55;9.32;;;;;;;6.56;86.92;102785.69;5081374;28;20039;-90
2022/11/26 09:06:03;;;;;;;26.15;9.80;;;;;;;6.68;86.61;102803.31;5065777;28;20021;-90
2022/11/26 09:08:30;;;;;;;24.42;8.93;;;;;;;6.78;86.39;102806.88;5066177;28;20114;-89
2022/11/26 09:10:56;;;;;;;21.70;8.65;;;;;;;6.81;86.54;102812.19;5081194;28;20115;-90
2022/11/26 09:13:22;;;;;;;21.00;9.85;;;;;;;6.78;86.09;102807.75;5083079;28;20085;-90
2022/11/26 09:15:49;;;;;;;26.45;8.85;;;;;;;6.83;86.36;102810.44;5063628;28;20023;-90
2022/11/26 09:18:14;;;;;;;30.63;10.13;;;;;;;6.88;86.61;102821.84;5068494;28;20016;-90
2022/11/26 09:20:39;;;;;;;33.50;8.95;;;;;;;7.13;85.32;102813.25;5070918;28;20073;-90
2022/11/26 09:23:05;;;;;;;21.77;8.50;;;;;;;7.18;85.15;102813.28;5065289;28;20017;-90
2022/11/26 09:25:30;;;;;;;20.77;9.43;;;;;;;7.28;84.68;102820.34;5085280;28;20020;-90
2022/11/26 09:27:55;;;;;;;25.88;9.60;;;;;;;7.35;84.44;102821.25;5070952;28;20027;-90
2022/11/26 09:30:20;;;;;;;31.42;9.65;;;;;;;7.22;84.27;102827.31;5085744;28;20032;-90
2022/11/26 09:32:46;;;;;;;24.95;10.50;;;;;;;7.16;85.37;102826.41;5068735;28;20556;-90
2022/11/26 09:35:11;;;;;;;25.95;10.52;;;;;;;7.21;85.63;102825.56;5082872;28;20040;-90
2022/11/26 09:37:36;;;;;;;32.55;10.27;;;;;;;7.30;85.16;102837.00;5086596;28;20411;-90
2022/11/26 09:40:02;;;;;;;17.77;8.20;;;;;;;7.38;84.99;102843.22;5068100;28;20116;-91
2022/11/26 09:42:45;;;;;;;20.05;8.27;;;;;;;7.45;84.89;102845.84;5063226;28;20402;-90
2022/11/26 09:45:40;;;;;;;22.70;9.32;;;;;;;7.51;84.56;102859.94;5086530;28;20024;-89
2022/11/26 09:48:16;;;;;;;21.20;9.45;;;;;;;7.52;85.11;102843.28;5058572;28;20039;-90
2022/11/26 09:50:44;;;;;;;23.15;8.43;;;;;;;7.59;84.94;102833.63;5085322;28;20118;-90
2022/11/26 09:53:24;;;;;;;30.10;8.75;;;;;;;7.71;84.63;102830.19;5081288;28;20518;-87
2022/11/26 09:55:53;;;;;;;21.27;8.43;;;;;;;7.82;84.52;102841.63;5065620;28;20029;-90
2022/11/26 09:58:24;;;;;;;21.67;8.93;;;;;;;7.93;83.68;102824.13;5086219;28;20028;-90
2022/11/26 10:00:54;;;;;;;22.63;9.05;;;;;;;7.98;83.82;102827.66;5070416;28;20081;-90
2022/11/26 10:03:23;;;;;;;20.35;9.73;;;;;;;8.00;83.96;102836.41;5067431;28;20028;-91
2022/11/26 10:06:06;;;;;;;27.95;9.10;;;;;;;8.03;83.48;102831.16;5054156;28;20025;-90
2022/11/26 10:08:42;;;;;;;24.77;8.82;;;;;;;7.92;83.75;102831.13;5066280;28;20090;-91
2022/11/26 10:11:20;;;;;;;21.02;8.52;;;;;;;7.96;83.95;102831.13;5070779;28;20035;-90
2022/11/26 10:14:23;;;;;;;20.30;8.05;;;;;;;7.97;84.06;102839.03;5041930;28;20514;-90
2022/11/26 10:17:13;;;;;;;22.02;9.10;;;;;;;7.99;84.06;102839.06;5080122;28;20514;-90
2022/11/26 10:19:58;;;;;;;22.60;9.85;;;;;;;8.03;84.00;102838.19;5088121;28;20428;-90
2022/11/26 10:22:51;;;;;;;22.67;8.57;;;;;;;8.29;83.61;102838.22;5064589;28;20504;-91
2022/11/26 10:25:25;;;;;;;24.35;8.98;;;;;;;8.13;83.74;102829.44;5085860;28;20032;-90
2022/11/26 10:27:54;;;;;;;20.98;9.15;;;;;;;8.23;83.93;102825.06;5087820;28;20073;-91
2022/11/26 10:30:23;;;;;;;25.85;8.95;;;;;;;8.43;83.15;102825.97;5089542;28;20063;-90
2022/11/26 10:32:50;;;;;;;29.55;9.80;;;;;;;9.03;82.30;102833.84;5077837;28;20507;-91
2022/11/26 10:35:27;;;;;;;20.13;7.97;;;;;;;9.83;79.47;102834.47;5059823;28;20064;-90
2022/11/26 10:37:54;;;;;;;22.45;7.68;;;;;;;10.91;76.30;102819.59;5082420;28;20032;-89
2022/11/26 10:40:24;;;;;;;19.13;7.47;;;;;;;11.65;72.31;102825.81;5089249;28;20026;-90
2022/11/26 10:43:00;;;;;;;19.10;5.88;;;;;;;11.59;70.92;102811.78;5059977;28;20063;-90
2022/11/26 10:45:36;;;;;;;17.38;6.35;;;;;;;11.56;71.15;102815.31;5087117;28;20020;-90
2022/11/26 10:48:16;;;;;;;18.60;6.32;;;;;;;11.40;72.44;102805.81;5081487;28;20024;-90
2022/11/26 10:50:53;;;;;;;16.73;6.53;;;;;;;11.14;72.39;102796.41;5079345;28;20028;-90
2022/11/26 10:53:21;;;;;;;12.13;6.38;;;;;;;11.08;73.05;102816.78;5076786;28;20025;-89
2022/11/26 10:55:46;;;;;;;20.25;6.25;;;;;;;11.08;72.71;102807.06;5084268;28;20293;-89
2022/11/26 10:58:42;;;;;;;18.23;5.75;;;;;;;11.25;72.67;102814.84;5089545;28;20050;-89
2022/11/26 11:01:08;;;;;;;20.25;6.20;;;;;;;11.37;71.01;102809.38;5073026;28;20052;-89
2022/11/26 11:03:47;;;;;;;14.25;6.10;;;;;;;11.88;70.47;102825.53;5070549;28;20024;-89
2022/11/26 11:06:18;;;;;;;12.38;6.45;;;;;;;11.87;68.63;102814.97;5085395;28;20050;-91
2022/11/26 11:08:48;;;;;;;23.10;7.25;;;;;;;12.19;69.25;102794.16;5083717;28;20475;-90
2022/11/26 11:11:31;;;;;;;18.65;6.57;;;;;;;12.98;68.40;102807.84;5079775;28;20044;-89
2022/11/26 11:13:57;;;;;;;16.60;5.60;;;;;;;13.58;65.47;102806.69;5065834;28;20030;-90
2022/11/26 11:16:29;;;;;;;17.00;5.50;;;;;;;13.87;64.16;102797.19;5092224;28;20020;-90
2022/11/26 11:18:59;;;;;;;15.88;5.28;;;;;;;14.41;61.93;102805.66;5091149;28;20437;-90
2022/11/26 11:21:33;;;;;;;13.48;5.18;;;;;;;15.35;59.96;102811.19;5067267;28;20115;-91
2022/11/26 11:24:07;;;;;;;18.92;5.00;;;;;;;15.63;58.51;102801.44;5087440;28;20034;-89
2022/11/26 11:26:41;;;;;;;14.77;5.45;;;;;;;15.27;58.64;102804.25;5080032;28;20105;-90